createdAt,value
2018-07-17T00:01:45.213Z,9.70
2018-07-17T00:04:13.850Z,11.37
2018-07-17T00:06:43.601Z,7.47
2018-07-17T00:09:13.129Z,8.23
2018-07-17T00:11:42.494Z,7.17
2018-07-17T00:14:11.771Z,8.93
2018-07-17T00:16:41.918Z,8.03
2018-07-17T00:19:10.592Z,7.30
2018-07-17T00:21:40.586Z,8.83
2018-07-17T00:24:10.025Z,7.33
2018-07-17T00:26:38.722Z,6.73
2018-07-17T00:29:07.420Z,9.07
2018-07-17T00:31:36.692Z,7.00
2018-07-17T00:34:05.399Z,10.03
2018-07-17T00:36:33.980Z,6.90
2018-07-17T00:39:03.689Z,7.47
2018-07-17T00:41:33.067Z,7.00
2018-07-17T00:44:02.661Z,8.90
2018-07-17T00:46:33.625Z,6.90
2018-07-17T00:49:03.727Z,7.30
2018-07-17T00:51:32.715Z,6.90
2018-07-17T00:54:01.313Z,9.43
2018-07-17T00:56:30.411Z,11.70
2018-07-17T00:58:59.847Z,7.90
2018-07-17T01:01:33.862Z,6.80
2018-07-17T01:04:08.363Z,9.17
2018-07-17T01:06:43.000Z,7.13
2018-07-17T01:09:17.350Z,10.17
2018-07-17T01:11:51.573Z,7.20
2018-07-17T01:14:26.859Z,9.63
2018-07-17T01:16:56.189Z,10.83
2018-07-17T01:19:26.335Z,7.30
2018-07-17T01:21:55.140Z,8.20
2018-07-17T01:24:24.486Z,9.57
2018-07-17T01:26:54.108Z,8.07
2018-07-17T01:29:23.303Z,8.07
2018-07-17T01:31:52.210Z,7.87
2018-07-17T01:34:22.722Z,7.30
2018-07-17T01:36:53.402Z,7.50
2018-07-17T01:39:22.193Z,8.77
2018-07-17T01:41:56.589Z,7.70
2018-07-17T01:44:25.673Z,7.30
2018-07-17T01:46:55.377Z,8.40
2018-07-17T01:49:24.979Z,10.30
2018-07-17T01:51:53.581Z,7.83
2018-07-17T01:54:22.702Z,8.83
2018-07-17T01:56:52.081Z,8.27
2018-07-17T01:59:20.988Z,10.70
2018-07-17T02:01:49.618Z,7.43
2018-07-17T02:04:19.183Z,7.90
2018-07-17T02:06:47.943Z,11.60
2018-07-17T02:09:16.705Z,11.13
2018-07-17T02:11:46.198Z,9.50
2018-07-17T02:14:15.360Z,9.17
2018-07-17T02:16:45.110Z,9.40
2018-07-17T02:19:14.423Z,10.30
2018-07-17T02:21:43.018Z,12.30
2018-07-17T02:24:12.050Z,8.60
2018-07-17T02:26:40.654Z,9.10
2018-07-17T02:29:09.815Z,12.23
2018-07-17T02:31:38.426Z,9.03
2018-07-17T02:34:10.375Z,9.10
2018-07-17T02:36:38.989Z,10.07
2018-07-17T02:39:08.819Z,8.60
2018-07-17T02:41:38.423Z,9.67
2018-07-17T02:44:07.945Z,8.40
2018-07-17T02:46:37.602Z,15.37
2018-07-17T02:49:06.242Z,9.23
2018-07-17T02:51:34.856Z,10.10
2018-07-17T02:54:04.063Z,9.43
2018-07-17T02:56:34.064Z,9.77
2018-07-17T02:59:02.624Z,9.70
2018-07-17T03:01:31.286Z,10.20
2018-07-17T03:03:59.863Z,10.33
2018-07-17T03:06:29.052Z,8.33
2018-07-17T03:08:57.773Z,8.87
2018-07-17T03:11:29.102Z,8.23
2018-07-17T03:14:01.866Z,13.63
2018-07-17T03:16:31.211Z,8.93
2018-07-17T03:18:59.948Z,9.73
2018-07-17T03:21:29.316Z,9.87
2018-07-17T03:23:58.042Z,8.50
2018-07-17T03:26:26.931Z,8.20
2018-07-17T03:28:55.913Z,11.70
2018-07-17T03:31:24.526Z,10.30
2018-07-17T03:33:53.207Z,8.50
2018-07-17T03:36:22.744Z,8.03
2018-07-17T03:38:51.495Z,8.57
2018-07-17T03:41:20.486Z,9.33
2018-07-17T03:43:49.101Z,8.47
2018-07-17T03:46:18.247Z,10.70
2018-07-17T03:48:47.648Z,8.80
2018-07-17T03:51:17.104Z,9.10
2018-07-17T03:53:46.527Z,9.60
2018-07-17T03:56:16.171Z,9.70
2018-07-17T03:58:44.785Z,8.57
2018-07-17T04:01:13.546Z,10.13
2018-07-17T04:03:42.631Z,9.80
2018-07-17T04:06:11.499Z,16.77
2018-07-17T04:08:41.264Z,10.20
2018-07-17T04:11:09.831Z,10.53
2018-07-17T04:13:38.698Z,11.57
2018-07-17T04:16:08.076Z,13.60
2018-07-17T04:18:38.392Z,10.70
2018-07-17T04:21:07.234Z,11.10
2018-07-17T04:23:39.469Z,10.60
2018-07-17T04:26:08.334Z,11.00
2018-07-17T04:28:37.485Z,10.53
2018-07-17T04:31:06.700Z,13.10
2018-07-17T04:33:35.885Z,10.93
2018-07-17T04:36:05.825Z,10.30
2018-07-17T04:38:34.434Z,14.13
2018-07-17T04:41:03.336Z,9.13
2018-07-17T04:43:31.985Z,9.60
2018-07-17T04:46:00.919Z,10.80
2018-07-17T04:48:30.315Z,14.23
2018-07-17T04:50:59.438Z,11.93
2018-07-17T04:53:28.229Z,15.17
2018-07-17T04:55:56.884Z,14.80
2018-07-17T04:58:26.829Z,16.13
2018-07-17T05:00:55.475Z,13.13
2018-07-17T05:03:24.216Z,23.30
2018-07-17T05:05:53.071Z,12.43
2018-07-17T05:08:21.711Z,11.33
2018-07-17T05:10:50.474Z,12.30
2018-07-17T05:13:19.148Z,13.77
2018-07-17T05:15:49.001Z,11.73
2018-07-17T05:18:18.639Z,15.37
2018-07-17T05:20:47.316Z,11.47
2018-07-17T05:23:16.330Z,9.67
2018-07-17T05:25:46.132Z,11.20
2018-07-17T05:28:16.072Z,11.77
2018-07-17T05:30:44.946Z,11.80
2018-07-17T05:33:13.654Z,13.07
2018-07-17T05:35:43.257Z,10.70
2018-07-17T05:38:12.484Z,14.70
2018-07-17T05:40:41.131Z,11.73
2018-07-17T05:43:09.755Z,11.43
2018-07-17T05:45:38.408Z,10.50
2018-07-17T05:48:08.347Z,9.50
2018-07-17T05:50:37.516Z,9.73
2018-07-17T05:53:06.165Z,12.43
2018-07-17T05:55:34.815Z,11.97
2018-07-17T05:58:04.180Z,11.10
2018-07-17T06:00:33.384Z,10.90
2018-07-17T06:03:01.951Z,11.90
2018-07-17T06:05:30.547Z,9.20
2018-07-17T06:07:59.180Z,13.03
2018-07-17T06:10:28.509Z,13.20
2018-07-17T06:12:57.142Z,8.97
2018-07-17T06:15:25.901Z,10.40
2018-07-17T06:17:54.457Z,12.10
2018-07-17T06:20:23.457Z,12.80
2018-07-17T06:22:52.354Z,9.27
2018-07-17T06:25:21.036Z,9.90
2018-07-17T06:27:49.632Z,11.23
2018-07-17T06:30:18.297Z,9.43
2018-07-17T06:32:46.863Z,9.43
2018-07-17T06:35:15.533Z,13.20
2018-07-17T06:37:44.262Z,12.03
2018-07-17T06:40:12.939Z,10.90
2018-07-17T06:42:41.692Z,9.13
2018-07-17T06:45:10.382Z,11.17
2018-07-17T06:47:39.041Z,9.10
2018-07-17T06:50:07.661Z,11.37
2018-07-17T06:52:36.260Z,10.13
2018-07-17T06:55:04.949Z,8.50
2018-07-17T06:57:33.568Z,8.53
2018-07-17T07:00:02.191Z,8.73
2018-07-17T07:02:30.884Z,10.60
2018-07-17T07:04:59.941Z,8.10
2018-07-17T07:07:28.630Z,8.10
2018-07-17T07:09:57.260Z,8.07
2018-07-17T07:12:26.125Z,8.30
2018-07-17T07:14:54.785Z,9.03
2018-07-17T07:17:23.810Z,7.93
2018-07-17T07:19:52.540Z,10.67
2018-07-17T07:22:21.181Z,10.93
2018-07-17T07:24:49.831Z,7.27
2018-07-17T07:27:18.544Z,7.43
2018-07-17T07:29:47.805Z,11.30
2018-07-17T07:32:17.116Z,8.90
2018-07-17T07:34:45.810Z,7.33
2018-07-17T07:37:14.492Z,8.20
2018-07-17T07:39:43.111Z,8.00
2018-07-17T07:42:11.869Z,8.80
2018-07-17T07:44:40.547Z,9.83
2018-07-17T07:47:09.223Z,7.30
2018-07-17T07:49:37.828Z,7.23
2018-07-17T07:52:06.609Z,8.00
2018-07-17T07:54:35.475Z,8.87
2018-07-17T07:57:04.101Z,7.60
2018-07-17T07:59:32.837Z,7.53
2018-07-17T08:02:02.711Z,6.80
2018-07-17T08:04:32.077Z,9.70
2018-07-17T08:07:00.706Z,8.33
2018-07-17T08:09:29.335Z,8.23
2018-07-17T08:11:58.088Z,7.30
2018-07-17T08:14:26.724Z,8.40
2018-07-17T08:16:55.457Z,7.13
2018-07-17T08:19:24.070Z,8.30
2018-07-17T08:21:53.748Z,7.90
2018-07-17T08:24:22.552Z,6.47
2018-07-17T08:26:51.366Z,6.97
2018-07-17T08:29:20.158Z,6.57
2018-07-17T08:31:48.963Z,7.70
2018-07-17T08:34:17.576Z,6.93
2018-07-17T08:36:46.214Z,7.10
2018-07-17T08:39:14.936Z,7.17
2018-07-17T08:41:43.690Z,6.50
2018-07-17T08:44:12.330Z,6.60
2018-07-17T08:46:41.020Z,6.57
2018-07-17T08:49:10.114Z,6.30
2018-07-17T08:51:38.707Z,6.43
2018-07-17T08:54:07.693Z,6.20
2018-07-17T08:56:36.420Z,6.80
2018-07-17T08:59:05.058Z,6.90
2018-07-17T09:01:33.938Z,6.23
2018-07-17T09:04:03.185Z,6.27
2018-07-17T09:06:31.855Z,6.50
2018-07-17T09:09:01.157Z,7.17
2018-07-17T09:11:30.606Z,6.40
2018-07-17T09:13:59.266Z,6.73
2018-07-17T09:16:28.436Z,7.70
2018-07-17T09:18:57.094Z,6.23
2018-07-17T09:21:26.629Z,6.10
2018-07-17T09:23:55.237Z,5.80
2018-07-17T09:26:24.571Z,6.00
2018-07-17T09:28:53.558Z,8.10
2018-07-17T09:31:26.624Z,8.10
2018-07-17T09:33:56.478Z,5.50
2018-07-17T09:36:25.610Z,5.27
2018-07-17T09:38:54.276Z,5.90
2018-07-17T09:41:23.035Z,5.40
2018-07-17T09:43:51.754Z,6.47
2018-07-17T09:46:20.756Z,8.37
2018-07-17T09:48:49.580Z,5.17
2018-07-17T09:51:18.241Z,5.50
2018-07-17T09:53:46.841Z,5.70
2018-07-17T09:56:15.453Z,5.60
2018-07-17T09:58:44.222Z,6.10
2018-07-17T10:01:18.331Z,5.73
2018-07-17T10:03:46.992Z,6.40
2018-07-17T10:06:15.990Z,6.70
2018-07-17T10:08:45.394Z,5.27
2018-07-17T10:11:14.060Z,6.67
2018-07-17T10:13:42.718Z,6.93
2018-07-17T10:16:11.526Z,6.20
2018-07-17T10:18:40.103Z,6.43
2018-07-17T10:21:09.242Z,7.70
2018-07-17T10:23:37.913Z,8.43
2018-07-17T10:26:06.905Z,5.80
2018-07-17T10:28:35.594Z,7.10
2018-07-17T10:31:04.353Z,5.73
2018-07-17T10:33:33.865Z,8.30
2018-07-17T10:36:02.513Z,10.23
2018-07-17T10:38:31.221Z,5.20
2018-07-17T10:41:00.001Z,5.80
2018-07-17T10:43:28.723Z,10.87
2018-07-17T10:45:57.447Z,9.40
2018-07-17T10:48:26.196Z,13.27
2018-07-17T10:50:54.892Z,16.53
2018-07-17T10:53:24.224Z,11.77
2018-07-17T10:55:52.950Z,12.00
2018-07-17T10:58:22.271Z,11.67
2018-07-17T11:00:50.942Z,11.20
2018-07-17T11:03:19.622Z,12.17
2018-07-17T11:05:48.226Z,11.37
2018-07-17T11:08:17.019Z,11.33
2018-07-17T11:10:45.731Z,9.53
2018-07-17T11:13:14.414Z,6.93
2018-07-17T11:15:43.214Z,6.40
2018-07-17T11:18:11.866Z,9.00
2018-07-17T11:20:40.523Z,8.73
2018-07-17T11:23:09.127Z,8.40
2018-07-17T11:25:38.833Z,7.83
2018-07-17T11:28:07.503Z,7.30
2018-07-17T11:30:37.058Z,9.47
2018-07-17T11:33:06.402Z,7.27
2018-07-17T11:35:35.071Z,9.60
2018-07-17T11:38:03.704Z,6.90
2018-07-17T11:40:32.398Z,9.17
2018-07-17T11:43:01.065Z,9.37
2018-07-17T11:45:29.762Z,7.43
2018-07-17T11:47:58.597Z,6.63
2018-07-17T11:50:27.281Z,7.17
2018-07-17T11:52:56.367Z,8.27
2018-07-17T11:55:25.053Z,7.07
2018-07-17T11:57:53.812Z,10.00
2018-07-17T12:00:22.436Z,5.53
2018-07-17T12:02:51.753Z,6.87
2018-07-17T12:05:21.397Z,4.97
2018-07-17T12:07:50.103Z,7.57
2018-07-17T12:10:18.824Z,6.80
2018-07-17T12:12:47.614Z,8.13
2018-07-17T12:15:16.138Z,7.10
2018-07-17T12:17:45.920Z,8.13
2018-07-17T12:20:14.843Z,4.83
2018-07-17T12:22:44.105Z,5.83
2018-07-17T12:25:12.913Z,5.37
2018-07-17T12:27:41.555Z,5.93
2018-07-17T12:30:10.539Z,4.97
2018-07-17T12:32:39.116Z,5.00
2018-07-17T12:35:08.435Z,6.63
2018-07-17T12:37:37.099Z,5.60
2018-07-17T12:40:06.672Z,5.00
2018-07-17T12:42:35.373Z,4.73
2018-07-17T12:45:04.156Z,5.23
2018-07-17T12:47:32.950Z,5.10
2018-07-17T12:50:01.763Z,4.60
2018-07-17T12:52:31.086Z,6.00
2018-07-17T12:54:59.765Z,4.50
2018-07-17T12:57:28.425Z,4.70
2018-07-17T12:59:57.040Z,4.13
2018-07-17T13:02:25.886Z,4.07
2018-07-17T13:04:54.661Z,5.27
2018-07-17T13:07:23.355Z,4.10
2018-07-17T13:09:52.070Z,3.63
2018-07-17T13:12:20.717Z,4.20
2018-07-17T13:14:49.534Z,3.73
2018-07-17T13:17:18.182Z,4.43
2018-07-17T13:19:46.791Z,5.87
2018-07-17T13:22:15.429Z,4.40
2018-07-17T13:24:44.154Z,4.77
2018-07-17T13:27:12.891Z,4.03
2018-07-17T13:29:41.598Z,3.97
2018-07-17T13:32:10.244Z,3.70
2018-07-17T13:34:39.328Z,4.00
2018-07-17T13:37:07.983Z,4.13
2018-07-17T13:39:36.700Z,4.00
2018-07-17T13:42:06.183Z,3.70
2018-07-17T13:44:35.020Z,3.87
2018-07-17T13:47:03.711Z,3.70
2018-07-17T13:49:32.406Z,4.40
2018-07-17T13:52:01.057Z,5.97
2018-07-17T13:54:29.746Z,3.93
2018-07-17T13:56:58.345Z,5.30
2018-07-17T13:59:26.984Z,4.40
2018-07-17T14:01:55.792Z,4.10
2018-07-17T14:04:24.411Z,4.10
2018-07-17T14:06:53.250Z,7.47
2018-07-17T14:09:22.546Z,8.20
2018-07-17T14:11:51.806Z,5.27
2018-07-17T14:14:20.447Z,5.53
2018-07-17T14:16:50.453Z,6.07
2018-07-17T14:19:19.736Z,12.90
2018-07-17T14:21:48.380Z,6.43
2018-07-17T14:24:17.567Z,5.60
2018-07-17T14:26:47.238Z,4.63
2018-07-17T14:29:16.169Z,7.70
2018-07-17T14:31:44.846Z,9.10
2018-07-17T14:34:13.507Z,5.10
2018-07-17T14:36:42.338Z,6.60
2018-07-17T14:39:13.032Z,6.67
2018-07-17T14:41:42.372Z,5.10
2018-07-17T14:44:11.573Z,8.23
2018-07-17T14:46:40.871Z,3.73
2018-07-17T14:49:10.982Z,3.93
2018-07-17T14:51:39.680Z,6.20
2018-07-17T14:54:08.505Z,4.97
2018-07-17T14:56:37.278Z,7.80
2018-07-17T14:59:06.244Z,4.80
2018-07-17T15:01:34.828Z,4.37
2018-07-17T15:04:03.476Z,5.23
2018-07-17T15:06:32.265Z,5.50
2018-07-17T15:09:00.915Z,6.90
2018-07-17T15:11:31.158Z,4.80
2018-07-17T15:13:59.784Z,5.83
2018-07-17T15:16:28.365Z,4.43
2018-07-17T15:18:57.140Z,5.03
2018-07-17T15:21:25.801Z,4.07
2018-07-17T15:23:54.546Z,3.60
2018-07-17T15:26:23.188Z,3.43
2018-07-17T15:28:51.753Z,4.60
2018-07-17T15:31:21.117Z,4.40
2018-07-17T15:33:49.783Z,4.27
2018-07-17T15:36:18.548Z,4.10
2018-07-17T15:38:47.177Z,3.70
2018-07-17T15:41:15.885Z,5.00
2018-07-17T15:43:44.536Z,4.60
2018-07-17T15:46:13.373Z,6.67
2018-07-17T15:48:43.219Z,5.53
2018-07-17T15:51:12.154Z,4.23
2018-07-17T15:53:40.898Z,4.03
2018-07-17T15:56:09.803Z,4.73
2018-07-17T15:58:38.565Z,3.83
2018-07-17T16:01:07.349Z,3.57
2018-07-17T16:03:36.147Z,4.37
2018-07-17T16:06:04.990Z,4.90
2018-07-17T16:08:33.661Z,4.40
2018-07-17T16:11:03.312Z,4.17
2018-07-17T16:13:32.081Z,3.77
2018-07-17T16:16:01.908Z,4.60
2018-07-17T16:18:30.804Z,3.60
2018-07-17T16:21:00.156Z,4.33
2018-07-17T16:23:30.393Z,4.40
2018-07-17T16:25:59.161Z,4.40
2018-07-17T16:28:27.920Z,5.20
2018-07-17T16:30:57.169Z,4.63
2018-07-17T16:33:25.883Z,5.00
2018-07-17T16:35:54.586Z,4.47
2018-07-17T16:38:23.438Z,4.50
2018-07-17T16:40:52.044Z,5.50
2018-07-17T16:43:21.365Z,4.87
2018-07-17T16:45:50.131Z,4.40
2018-07-17T16:48:19.246Z,4.67
2018-07-17T16:50:47.960Z,4.50
2018-07-17T16:53:17.397Z,4.93
2018-07-17T16:55:46.192Z,5.17
2018-07-17T16:58:16.796Z,5.13
2018-07-17T17:00:46.332Z,5.87
2018-07-17T17:03:15.067Z,5.17
2018-07-17T17:05:45.424Z,5.30
2018-07-17T17:08:14.150Z,5.03
2018-07-17T17:10:42.874Z,5.40
2018-07-17T17:13:11.592Z,5.57
2018-07-17T17:15:40.239Z,4.73
2018-07-17T17:18:08.992Z,4.80
2018-07-17T17:20:38.060Z,4.83
2018-07-17T17:23:06.970Z,5.47
2018-07-17T17:25:42.759Z,5.70
2018-07-17T17:28:12.253Z,6.93
2018-07-17T17:30:40.966Z,8.87
2018-07-17T17:33:09.785Z,7.03
2018-07-17T17:35:38.431Z,4.87
2018-07-17T17:38:07.736Z,6.57
2018-07-17T17:40:36.520Z,7.30
2018-07-17T17:43:05.714Z,5.20
2018-07-17T17:45:36.012Z,6.80
2018-07-17T17:48:05.849Z,5.37
2018-07-17T17:50:34.556Z,5.53
2018-07-17T17:53:03.294Z,6.40
2018-07-17T17:55:32.930Z,6.50
2018-07-17T17:58:03.346Z,5.60
2018-07-17T18:00:32.205Z,5.97
2018-07-17T18:03:02.158Z,7.37
2018-07-17T18:05:30.861Z,5.93
2018-07-17T18:08:00.218Z,7.27
2018-07-17T18:10:30.400Z,5.13
2018-07-17T18:12:59.860Z,7.57
2018-07-17T18:15:28.662Z,6.03
2018-07-17T18:17:57.523Z,7.30
2018-07-17T18:20:28.399Z,6.47
2018-07-17T18:22:57.392Z,6.77
2018-07-17T18:25:26.752Z,7.67
2018-07-17T18:27:55.636Z,8.23
2018-07-17T18:30:25.386Z,5.57
2018-07-17T18:32:54.051Z,5.83
2018-07-17T18:35:22.757Z,5.33
2018-07-17T18:37:51.515Z,9.83
2018-07-17T18:40:21.037Z,5.73
2018-07-17T18:42:50.193Z,7.70
2018-07-17T18:45:19.314Z,6.63
2018-07-17T18:47:48.120Z,5.43
2018-07-17T18:50:17.791Z,6.23
2018-07-17T18:52:46.482Z,5.47
2018-07-17T18:55:15.369Z,5.87
2018-07-17T18:57:45.519Z,4.93
2018-07-17T19:00:14.237Z,5.27
2018-07-17T19:02:44.063Z,4.50
2018-07-17T19:05:13.183Z,5.67
2018-07-17T19:07:41.908Z,5.10
2018-07-17T19:10:10.659Z,4.60
2018-07-17T19:12:39.450Z,6.17
2018-07-17T19:15:08.180Z,6.60
2018-07-17T19:17:37.410Z,4.40
2018-07-17T19:20:06.174Z,4.70
2018-07-17T19:22:35.190Z,3.93
2018-07-17T19:25:03.899Z,3.83
2018-07-17T19:27:32.692Z,4.23
2018-07-17T19:30:01.416Z,4.40
2018-07-17T19:32:30.076Z,4.10
2018-07-17T19:34:59.058Z,3.10
2018-07-17T19:37:28.039Z,7.00
2018-07-17T19:39:57.381Z,3.30
2018-07-17T19:42:26.017Z,3.63
2018-07-17T19:44:54.925Z,3.30
2018-07-17T19:47:24.072Z,3.33
2018-07-17T19:49:52.717Z,3.30
2018-07-17T19:52:21.412Z,5.50
2018-07-17T19:54:50.075Z,3.70
2018-07-17T19:57:18.950Z,6.53
2018-07-17T19:59:48.349Z,3.70
2018-07-17T20:02:17.010Z,3.23
2018-07-17T20:04:45.699Z,7.97
2018-07-17T20:07:14.366Z,3.17
2018-07-17T20:09:43.154Z,3.70
2018-07-17T20:12:12.356Z,3.60
2018-07-17T20:14:42.141Z,3.23
2018-07-17T20:17:12.256Z,3.30
2018-07-17T20:19:41.763Z,3.03
2018-07-17T20:22:10.711Z,5.67
2018-07-17T20:24:44.386Z,3.50
2018-07-17T20:27:13.644Z,3.30
2018-07-17T20:29:43.093Z,5.13
2018-07-17T20:32:12.656Z,3.07
2018-07-17T20:34:41.351Z,3.37
2018-07-17T20:37:10.880Z,3.57
2018-07-17T20:39:40.596Z,3.67
2018-07-17T20:42:09.628Z,3.70
2018-07-17T20:44:40.089Z,4.10
2018-07-17T20:47:14.443Z,3.50
2018-07-17T20:49:47.407Z,6.00
2018-07-17T20:52:17.780Z,3.50
2018-07-17T20:54:47.142Z,5.13
2018-07-17T20:57:16.916Z,4.40
2018-07-17T20:59:46.657Z,4.30
2018-07-17T21:02:16.839Z,4.27
2018-07-17T21:04:46.950Z,3.47
2018-07-17T21:07:18.163Z,5.30
2018-07-17T21:09:53.694Z,5.70
2018-07-17T21:12:24.169Z,4.07
2018-07-17T21:14:54.224Z,3.80
2018-07-17T21:17:24.364Z,3.93
2018-07-17T21:19:54.889Z,4.03
2018-07-17T21:22:24.357Z,4.37
2018-07-17T21:24:53.935Z,4.13
2018-07-17T21:27:23.984Z,4.77
2018-07-17T21:29:54.777Z,4.40
2018-07-17T21:32:24.394Z,6.60
2018-07-17T21:34:53.261Z,4.60
2018-07-17T21:37:23.303Z,4.57
2018-07-17T21:39:52.902Z,5.07
2018-07-17T21:42:21.823Z,4.90
2018-07-17T21:44:51.314Z,4.90
2018-07-17T21:47:20.803Z,4.67
2018-07-17T21:49:50.688Z,4.90
2018-07-17T21:52:19.333Z,6.13
2018-07-17T21:54:48.239Z,5.23
2018-07-17T21:57:17.676Z,5.80
2018-07-17T21:59:48.237Z,5.27
2018-07-17T22:02:17.587Z,5.00
2018-07-17T22:04:46.336Z,4.73
2018-07-17T22:07:16.306Z,5.27
2018-07-17T22:09:45.563Z,4.90
2018-07-17T22:12:16.212Z,4.43
2018-07-17T22:14:46.530Z,4.87
2018-07-17T22:17:15.449Z,4.63
2018-07-17T22:19:45.060Z,4.77
2018-07-17T22:22:14.712Z,5.20
2018-07-17T22:24:43.581Z,5.53
2018-07-17T22:27:12.937Z,4.63
2018-07-17T22:29:42.427Z,4.70
2018-07-17T22:32:11.738Z,5.57
2018-07-17T22:34:40.533Z,5.97
2018-07-17T22:37:10.646Z,5.53
2018-07-17T22:39:40.654Z,5.87
2018-07-17T22:42:10.085Z,5.13
2018-07-17T22:44:39.578Z,6.73
2018-07-17T22:47:08.288Z,6.27
2018-07-17T22:49:37.675Z,4.93
2018-07-17T22:52:07.120Z,5.67
2018-07-17T22:54:37.156Z,5.43
2018-07-17T22:57:06.009Z,4.50
2018-07-17T22:59:35.748Z,4.20
2018-07-17T23:02:05.138Z,5.80
2018-07-17T23:04:34.306Z,6.27
2018-07-17T23:07:02.937Z,5.90
2018-07-17T23:09:32.271Z,5.40
2018-07-17T23:12:01.695Z,5.60
2018-07-17T23:14:31.670Z,6.10
2018-07-17T23:17:01.766Z,5.23
2018-07-17T23:19:31.230Z,5.60
2018-07-17T23:22:00.094Z,6.20
2018-07-17T23:24:29.296Z,6.87
2018-07-17T23:26:58.040Z,6.17
2018-07-17T23:29:26.968Z,8.33
2018-07-17T23:31:56.259Z,6.20
2018-07-17T23:34:25.332Z,7.87
2018-07-17T23:36:54.641Z,6.63
2018-07-17T23:39:23.338Z,8.43
2018-07-17T23:41:51.989Z,6.57
2018-07-17T23:44:21.266Z,9.80
2018-07-17T23:46:51.299Z,7.53
2018-07-17T23:49:24.968Z,6.27
2018-07-17T23:51:55.190Z,7.33
2018-07-17T23:54:23.895Z,6.93
2018-07-17T23:56:52.697Z,7.57
2018-07-17T23:59:21.614Z,8.67
